Gazpromneft East — UBOF4 — position and weather

sailwx.info

Track history (hours):
 
Tides and Currents Weather Stations Pressure Air Temp Water Temp Dewpoint Dewpoint Depression Visibility Wind Speed Wind Dir Waves Ship Positions

Gazpromneft East

Last reported at 2014-Sep-17 08:09 UTC. Time now 2014-Sep-17 23:42 UTC.
Position N 59°54' E 030°08'.

Length 79 m; draft 4.1 m.

Type: Tanker. MMSI: 273335320.

Date/timePositionNaut miles runAvg speedWind from/ knotsBaromVisibWave heightAir tempDewpointWater temp
2014-Sep-17 08:09N 59°54' E 030°08'3 1.8
2014-Sep-17 06:32N 59°53' E 030°13'0 0.0
2014-Sep-17 04:26N 59°53' E 030°13'0 0.0
2014-Sep-17 01:23N 59°53' E 030°13'0 0.0
2014-Sep-17 00:27N 59°53' E 030°13'1 0.6
2014-Sep-16 23:33N 59°53' E 030°13'1 0.6
2014-Sep-16 22:33N 59°53' E 030°11'0 0.0
2014-Sep-16 21:33N 59°53' E 030°11'0 0.0
2014-Sep-16 20:33N 59°53' E 030°11'0 0.0
2014-Sep-16 19:33N 59°53' E 030°11'0 0.0
2014-Sep-16 18:33N 59°53' E 030°11'0 0.0
2014-Sep-16 17:33N 59°53' E 030°11'0 0.0
2014-Sep-16 16:33N 59°53' E 030°11'0 0.0
2014-Sep-16 13:31N 59°53' E 030°11'0 0.0
2014-Sep-16 11:33N 59°53' E 030°11'1 0.2
2014-Sep-16 05:32N 59°53' E 030°13'0 0.0
2014-Sep-16 04:30N 59°53' E 030°13'0 0.0
2014-Sep-16 03:16N 59°53' E 030°13'0 0.0
2014-Sep-16 02:22N 59°53' E 030°13'0 0.0
2014-Sep-16 01:33N 59°53' E 030°13'0 0.0
2014-Sep-16 00:27N 59°53' E 030°13'0 0.0
2014-Sep-15 23:32N 59°53' E 030°13'0 0.0
2014-Sep-15 22:33N 59°53' E 030°13'0 0.0
2014-Sep-15 21:31N 59°53' E 030°13'0 0.0
2014-Sep-15 20:33N 59°53' E 030°13'0 0.0
2014-Sep-15 19:32N 59°53' E 030°13'0 0.0
2014-Sep-15 10:23N 59°53' E 030°13'0 0.0
2014-Sep-15 04:04N 59°53' E 030°13'0 0.0
2014-Sep-15 03:20N 59°53' E 030°13'0 0.0
2014-Sep-15 02:33N 59°53' E 030°13'0 0.0
2014-Sep-15 01:31N 59°53' E 030°13'0 0.0
2014-Sep-15 00:27N 59°53' E 030°13'0 0.0
2014-Sep-14 23:32N 59°53' E 030°13'0 0.0
2014-Sep-14 22:28N 59°53' E 030°13'0 0.0
2014-Sep-14 21:29N 59°53' E 030°13'0 0.0
2014-Sep-14 20:16N 59°53' E 030°13'0 0.0
2014-Sep-14 19:33N 59°53' E 030°13'0 0.0
2014-Sep-14 18:33N 59°53' E 030°13'0 0.0
2014-Sep-14 17:27N 59°53' E 030°13'2 0.1
2014-Sep-13 06:31N 59°53' E 030°09'2 1.0
2014-Sep-13 04:22N 59°53' E 030°13'0 0.0
2014-Sep-13 03:22N 59°53' E 030°13'0 0.0
2014-Sep-13 02:23N 59°53' E 030°13'  
2014-Sep-09 05:30N 59°53' E 030°13'0 0.0
2014-Sep-09 04:20N 59°53' E 030°13'0 0.0
2014-Sep-09 03:20N 59°53' E 030°13'0 0.0
2014-Sep-09 02:22N 59°53' E 030°13'0 0.0
2014-Sep-09 00:11N 59°53' E 030°13'1 0.2
2014-Sep-08 21:33N 59°53' E 030°12'0 0.0
2014-Sep-08 20:22N 59°53' E 030°12'0 0.0
2014-Sep-08 19:25N 59°53' E 030°12'1 0.1
2014-Sep-08 08:21N 59°53' E 030°14'0 0.0
2014-Sep-08 07:17N 59°53' E 030°14'0 0.1
2014-Sep-08 06:30N 59°53' E 030°13'0 0.0
2014-Sep-08 04:33N 59°53' E 030°13'0 0.0
2014-Sep-08 03:23N 59°53' E 030°13'0 0.0
2014-Sep-08 01:33N 59°53' E 030°13'0 0.0
2014-Sep-08 00:31N 59°53' E 030°13'4 0.3
2014-Sep-07 10:33N 59°57' E 030°11'  
Track history (hours):
 
Tides and Currents Weather Stations Pressure Air Temp Water Temp Dewpoint Dewpoint Depression Visibility Wind Speed Wind Dir Waves Ship Positions

Gazpromneft East

Last reported at 2014-Sep-17 08:09 UTC. Time now 2014-Sep-17 23:42 UTC.
Position N 59°54' E 030°08'.

Length 79 m; draft 4.1 m.

Type: Tanker. MMSI: 273335320.

Date/timePositionNaut miles runAvg speedWind from/ knotsBaromVisibWave heightAir tempDewpointWater temp
2014-Sep-17 08:09N 59°54' E 030°08'3 1.8
2014-Sep-17 06:32N 59°53' E 030°13'0 0.0
2014-Sep-17 04:26N 59°53' E 030°13'0 0.0
2014-Sep-17 01:23N 59°53' E 030°13'0 0.0
2014-Sep-17 00:27N 59°53' E 030°13'1 0.6
2014-Sep-16 23:33N 59°53' E 030°13'1 0.6
2014-Sep-16 22:33N 59°53' E 030°11'0 0.0
2014-Sep-16 21:33N 59°53' E 030°11'0 0.0
2014-Sep-16 20:33N 59°53' E 030°11'0 0.0
2014-Sep-16 19:33N 59°53' E 030°11'0 0.0
2014-Sep-16 18:33N 59°53' E 030°11'0 0.0
2014-Sep-16 17:33N 59°53' E 030°11'0 0.0
2014-Sep-16 16:33N 59°53' E 030°11'0 0.0
2014-Sep-16 13:31N 59°53' E 030°11'0 0.0
2014-Sep-16 11:33N 59°53' E 030°11'1 0.2
2014-Sep-16 05:32N 59°53' E 030°13'0 0.0
2014-Sep-16 04:30N 59°53' E 030°13'0 0.0
2014-Sep-16 03:16N 59°53' E 030°13'0 0.0
2014-Sep-16 02:22N 59°53' E 030°13'0 0.0
2014-Sep-16 01:33N 59°53' E 030°13'0 0.0
2014-Sep-16 00:27N 59°53' E 030°13'0 0.0
2014-Sep-15 23:32N 59°53' E 030°13'0 0.0
2014-Sep-15 22:33N 59°53' E 030°13'0 0.0
2014-Sep-15 21:31N 59°53' E 030°13'0 0.0
2014-Sep-15 20:33N 59°53' E 030°13'0 0.0
2014-Sep-15 19:32N 59°53' E 030°13'0 0.0
2014-Sep-15 10:23N 59°53' E 030°13'0 0.0
2014-Sep-15 04:04N 59°53' E 030°13'0 0.0
2014-Sep-15 03:20N 59°53' E 030°13'0 0.0
2014-Sep-15 02:33N 59°53' E 030°13'0 0.0
2014-Sep-15 01:31N 59°53' E 030°13'0 0.0
2014-Sep-15 00:27N 59°53' E 030°13'0 0.0
2014-Sep-14 23:32N 59°53' E 030°13'0 0.0
2014-Sep-14 22:28N 59°53' E 030°13'0 0.0
2014-Sep-14 21:29N 59°53' E 030°13'0 0.0
2014-Sep-14 20:16N 59°53' E 030°13'0 0.0
2014-Sep-14 19:33N 59°53' E 030°13'0 0.0
2014-Sep-14 18:33N 59°53' E 030°13'0 0.0
2014-Sep-14 17:27N 59°53' E 030°13'2 0.1
2014-Sep-13 06:31N 59°53' E 030°09'2 1.0
2014-Sep-13 04:22N 59°53' E 030°13'0 0.0
2014-Sep-13 03:22N 59°53' E 030°13'0 0.0
2014-Sep-13 02:23N 59°53' E 030°13'  
2014-Sep-09 05:30N 59°53' E 030°13'0 0.0
2014-Sep-09 04:20N 59°53' E 030°13'0 0.0
2014-Sep-09 03:20N 59°53' E 030°13'0 0.0
2014-Sep-09 02:22N 59°53' E 030°13'0 0.0
2014-Sep-09 00:11N 59°53' E 030°13'1 0.2
2014-Sep-08 21:33N 59°53' E 030°12'0 0.0
2014-Sep-08 20:22N 59°53' E 030°12'0 0.0
2014-Sep-08 19:25N 59°53' E 030°12'1 0.1
2014-Sep-08 08:21N 59°53' E 030°14'0 0.0
2014-Sep-08 07:17N 59°53' E 030°14'0 0.1
2014-Sep-08 06:30N 59°53' E 030°13'0 0.0
2014-Sep-08 04:33N 59°53' E 030°13'0 0.0
2014-Sep-08 03:23N 59°53' E 030°13'0 0.0
2014-Sep-08 01:33N 59°53' E 030°13'0 0.0
2014-Sep-08 00:31N 59°53' E 030°13'4 0.3
2014-Sep-07 10:33N 59°57' E 030°11'  

Dump ship's entire track history